92WI weather

Knight Aire Airport
Merrill, Wisconsin, United States

Public forecast

Using degrees Fahrenheit for public forecast. Weather courtesy of forecast.io.

Closest aviation weather report (METAR) to Knight Aire Airport

Closest report is Merrill Municipal Airport, 6.6 nm (12.2 km) SSW. Retrieved 2020/02/22 05:15 UTC (8 minutes ago):

KRRL 220515Z AUTO 00000KT 10SM CLR M04/M06 A3007 RMK AO2 T10371058 TSNO

Closest aviation forecast (TAF) to Knight Aire Airport

Closest forecast is Rhinelander Oneida County Airport, 21.4 nm (39.6 km) NNE. Retrieved 2020-02-22 00:27 UTC (5 hours ago):

TAF KRHI 212325Z 2200/2224 24012G19KT P6SM SKC WS015/26035KT FM220400 25007KT P6SM SCT250 WS010/27035KT FM220600 24006KT P6SM SKC